Ghaziabad Weather



Ghaziabad's Current Weather

Temprature 21.1o clear sky

clear sky

Rain: 0 %

Min Temprature21.1o
Max Temprature21.1o
Humidity33
Wind Speed2.44 m/h
Sun Rise05:48:14
Sun Set18:32:19
Current Time: 09-Apr-2020 03:25:07
Lat/Lon: 30.4, 72.76




Ghaziabad's Geo Location



Ghaziabad's Weather Forecast

Time Overall Temp Min Temp Max Temp Humidity Wind Speed Rain
09-Apr-2020 (Thu)
05:00:00 clear sky 20.280 20.280 20.280 33 1.78 m/h 0 %
08:00:00 clear sky 25.610 25.610 25.610 26 2.02 m/h 0 %
11:00:00 scattered clouds 32.150 32.150 32.150 17 2.41 m/h 0 %
14:00:00 overcast clouds 35.170 35.170 35.170 14 3.28 m/h 0 %
17:00:00 overcast clouds 34.250 34.250 34.250 15 1.86 m/h 0 %
20:00:00 overcast clouds 27.640 27.640 27.640 23 0.98 m/h 0 %
23:00:00 light rain 26.240 26.240 26.240 28 0.69 m/h 18 %
10-Apr-2020 (Fri)
02:00:00 light rain 24.060 24.060 24.060 33 2.71 m/h 35 %
05:00:00 scattered clouds 21.480 21.480 21.480 41 2.42 m/h 0 %
08:00:00 clear sky 26.280 26.280 26.280 30 2.26 m/h 0 %
11:00:00 clear sky 33.600 33.600 33.600 17 1.67 m/h 0 %
14:00:00 clear sky 36.610 36.610 36.610 13 2.6 m/h 0 %
17:00:00 clear sky 35.340 35.340 35.340 15 4.22 m/h 0 %
20:00:00 clear sky 28.170 28.170 28.170 26 4.06 m/h 0 %
23:00:00 clear sky 25.340 25.340 25.340 34 3.4 m/h 0 %
11-Apr-2020 (Sat)
02:00:00 clear sky 23.870 23.870 23.870 38 3.15 m/h 0 %
05:00:00 scattered clouds 22.520 22.520 22.520 42 3.21 m/h 0 %
08:00:00 broken clouds 27.570 27.570 27.570 33 3.22 m/h 0 %
11:00:00 scattered clouds 34.650 34.650 34.650 19 2.84 m/h 0 %
14:00:00 clear sky 37.620 37.620 37.620 13 2.97 m/h 0 %
17:00:00 few clouds 37.060 37.060 37.060 13 4.89 m/h 0 %
20:00:00 broken clouds 29.900 29.900 29.900 20 3.3 m/h 0 %
23:00:00 overcast clouds 27.860 27.860 27.860 22 2.71 m/h 0 %
12-Apr-2020 (Sun)
02:00:00 scattered clouds 26.140 26.140 26.140 25 2.61 m/h 0 %
05:00:00 broken clouds 24.610 24.610 24.610 29 1.87 m/h 0 %
08:00:00 broken clouds 29.560 29.560 29.560 24 1.06 m/h 0 %
11:00:00 broken clouds 36.640 36.640 36.640 16 1.57 m/h 0 %
14:00:00 broken clouds 38.890 38.890 38.890 13 3.98 m/h 0 %
17:00:00 broken clouds 37.960 37.960 37.960 13 3.93 m/h 0 %
20:00:00 few clouds 30.690 30.690 30.690 21 2.25 m/h 0 %
23:00:00 few clouds 28.550 28.550 28.550 25 1.76 m/h 0 %
13-Apr-2020 (Mon)
02:00:00 overcast clouds 27.060 27.060 27.060 28 2.05 m/h 0 %
05:00:00 broken clouds 25.750 25.750 25.750 29 1.51 m/h 0 %
08:00:00 broken clouds 30.440 30.440 30.440 23 0.58 m/h 0 %
11:00:00 broken clouds 38.550 38.550 38.550 14 1.17 m/h 0 %
14:00:00 scattered clouds 41.290 41.290 41.290 10 2.92 m/h 0 %
17:00:00 few clouds 40.870 40.870 40.870 9 2.31 m/h 0 %
20:00:00 scattered clouds 32.910 32.910 32.910 16 1.59 m/h 0 %
23:00:00 few clouds 30.990 30.990 30.990 18 3 m/h 0 %
14-Apr-2020 (Tue)
02:00:00 broken clouds 29.900 29.900 29.900 18 3.16 m/h 0 %

Famous Cities (61)